createdAt,value
2022-09-15T00:00:12.743Z,22.85
2022-09-15T00:02:39.730Z,22.80
2022-09-15T00:05:07.273Z,22.77
2022-09-15T00:07:34.692Z,22.77
2022-09-15T00:10:01.832Z,22.74
2022-09-15T00:12:29.991Z,22.73
2022-09-15T00:14:56.992Z,22.71
2022-09-15T00:17:24.312Z,22.65
2022-09-15T00:19:51.633Z,22.63
2022-09-15T00:22:20.092Z,22.59
2022-09-15T00:24:49.574Z,22.57
2022-09-15T00:27:17.232Z,22.58
2022-09-15T00:29:44.453Z,22.53
2022-09-15T00:32:11.472Z,22.45
2022-09-15T00:34:38.500Z,22.44
2022-09-15T00:37:05.976Z,22.35
2022-09-15T00:39:32.992Z,22.35
2022-09-15T00:42:00.036Z,22.40
2022-09-15T00:44:35.933Z,22.41
2022-09-15T00:47:19.338Z,22.25
2022-09-15T00:49:49.653Z,22.10
2022-09-15T00:52:43.972Z,21.96
2022-09-15T00:55:35.272Z,21.91
2022-09-15T00:58:09.017Z,21.88
2022-09-15T01:00:37.017Z,21.90
2022-09-15T01:03:04.752Z,21.86
2022-09-15T01:05:51.213Z,21.89
2022-09-15T01:08:28.632Z,21.93
2022-09-15T01:10:56.660Z,21.89
2022-09-15T01:13:23.591Z,21.93
2022-09-15T01:16:11.832Z,21.92
2022-09-15T01:18:50.313Z,21.92
2022-09-15T01:21:20.492Z,21.97
2022-09-15T01:24:01.032Z,22.00
2022-09-15T01:26:34.072Z,22.01
2022-09-15T01:29:06.874Z,22.01
2022-09-15T01:32:34.552Z,22.02
2022-09-15T01:35:11.708Z,22.04
2022-09-15T01:37:46.412Z,22.05
2022-09-15T01:40:16.587Z,22.07
2022-09-15T01:42:45.772Z,22.09
2022-09-15T01:45:20.035Z,22.06
2022-09-15T01:47:50.293Z,22.01
2022-09-15T01:50:22.892Z,21.97
2022-09-15T01:52:55.252Z,21.94
2022-09-15T01:55:28.074Z,21.94
2022-09-15T01:57:55.172Z,21.93
2022-09-15T02:00:22.133Z,21.91
2022-09-15T02:02:58.992Z,21.89
2022-09-15T02:05:41.672Z,21.85
2022-09-15T02:08:25.294Z,21.86
2022-09-15T02:10:57.232Z,21.83
2022-09-15T02:13:43.052Z,21.73
2022-09-15T02:16:20.283Z,21.65
2022-09-15T02:19:12.518Z,21.65
2022-09-15T02:22:11.494Z,21.64
2022-09-15T02:24:44.213Z,21.64
2022-09-15T02:27:22.203Z,21.64
2022-09-15T02:29:50.352Z,21.56
2022-09-15T02:32:19.552Z,21.57
2022-09-15T02:34:51.656Z,21.53
2022-09-15T02:37:22.174Z,21.57
2022-09-15T02:39:53.773Z,21.55
2022-09-15T02:42:29.672Z,21.54
2022-09-15T02:44:57.431Z,21.56
2022-09-15T02:47:25.031Z,21.56
2022-09-15T02:49:52.292Z,21.55
2022-09-15T02:52:19.352Z,21.57
2022-09-15T02:54:46.379Z,21.60
2022-09-15T02:57:16.694Z,21.60
2022-09-15T03:00:02.360Z,21.61
2022-09-15T03:02:30.022Z,21.62
2022-09-15T03:04:57.111Z,21.62
2022-09-15T03:07:25.134Z,21.63
2022-09-15T03:09:52.132Z,21.64
2022-09-15T03:12:19.162Z,21.64
2022-09-15T03:14:47.310Z,21.61
2022-09-15T03:17:14.256Z,21.57
2022-09-15T03:19:41.314Z,21.57
2022-09-15T03:22:09.632Z,21.57
2022-09-15T03:24:39.692Z,21.43
2022-09-15T03:27:06.752Z,21.51
2022-09-15T03:29:33.752Z,21.47
2022-09-15T03:32:00.969Z,21.43
2022-09-15T03:34:27.992Z,21.40
2022-09-15T03:36:54.940Z,21.38
2022-09-15T03:39:21.972Z,21.32
2022-09-15T03:41:48.972Z,21.33
2022-09-15T03:44:16.093Z,21.30
2022-09-15T03:46:43.212Z,21.33
2022-09-15T03:49:10.353Z,21.24
2022-09-15T03:51:37.272Z,21.15
2022-09-15T03:54:04.432Z,21.07
2022-09-15T03:56:33.216Z,21.04
2022-09-15T03:59:02.354Z,21.03
2022-09-15T04:01:30.731Z,21.04
2022-09-15T04:03:58.672Z,20.95
2022-09-15T04:06:27.036Z,20.92
2022-09-15T04:08:54.412Z,20.95
2022-09-15T04:11:22.437Z,20.92
2022-09-15T04:13:50.192Z,20.90
2022-09-15T04:16:20.253Z,20.88
2022-09-15T04:18:47.393Z,20.84
2022-09-15T04:21:17.521Z,20.83
2022-09-15T04:23:45.476Z,20.83
2022-09-15T04:26:34.101Z,20.82
2022-09-15T04:29:04.586Z,20.84
2022-09-15T04:31:33.554Z,20.83
2022-09-15T04:34:01.331Z,20.81
2022-09-15T04:36:29.607Z,20.81
2022-09-15T04:38:56.821Z,20.79
2022-09-15T04:41:25.941Z,20.68
2022-09-15T04:43:53.066Z,20.68
2022-09-15T04:46:21.242Z,20.66
2022-09-15T04:48:49.103Z,20.52
2022-09-15T04:51:20.804Z,20.48
2022-09-15T04:53:48.479Z,20.46
2022-09-15T04:56:19.019Z,20.43
2022-09-15T04:58:54.100Z,20.48
2022-09-15T05:01:30.308Z,20.46
2022-09-15T05:03:57.647Z,20.49
2022-09-15T05:06:27.360Z,20.46
2022-09-15T05:08:56.842Z,20.56
2022-09-15T05:11:24.769Z,20.53
2022-09-15T05:13:52.042Z,20.38
2022-09-15T05:16:24.925Z,20.31
2022-09-15T05:18:54.340Z,20.30
2022-09-15T05:21:23.420Z,20.32
2022-09-15T05:23:52.277Z,20.33
2022-09-15T05:26:21.769Z,20.35
2022-09-15T05:28:48.821Z,20.36
2022-09-15T05:31:27.591Z,20.39
2022-09-15T05:33:55.142Z,20.40
2022-09-15T05:36:25.726Z,20.43
2022-09-15T05:38:55.879Z,20.45
2022-09-15T05:41:23.619Z,20.50
2022-09-15T05:43:51.220Z,20.54
2022-09-15T05:46:19.833Z,20.58
2022-09-15T05:48:47.355Z,20.62
2022-09-15T05:51:15.060Z,20.65
2022-09-15T05:53:42.206Z,20.65
2022-09-15T05:56:13.539Z,20.69
2022-09-15T05:58:42.002Z,20.71
2022-09-15T06:01:13.799Z,20.77
2022-09-15T06:03:41.187Z,20.78
2022-09-15T06:06:08.260Z,20.84
2022-09-15T06:08:51.869Z,20.85
2022-09-15T06:11:24.140Z,20.90
2022-09-15T06:13:51.219Z,20.93
2022-09-15T06:16:21.296Z,20.98
2022-09-15T06:18:49.879Z,20.99
2022-09-15T06:21:21.919Z,21.03
2022-09-15T06:24:00.140Z,21.07
2022-09-15T06:26:28.220Z,21.11
2022-09-15T06:28:56.340Z,21.15
2022-09-15T06:31:24.170Z,21.24
2022-09-15T06:33:53.423Z,21.26
2022-09-15T06:36:22.688Z,21.29
2022-09-15T06:38:50.059Z,21.30
2022-09-15T06:41:17.120Z,21.28
2022-09-15T06:43:45.271Z,21.25
2022-09-15T06:46:13.707Z,21.22
2022-09-15T06:48:44.224Z,21.24
2022-09-15T06:51:15.179Z,21.32
2022-09-15T06:53:42.242Z,21.35
2022-09-15T06:56:12.520Z,21.33
2022-09-15T06:58:41.080Z,21.37
2022-09-15T07:01:10.749Z,21.40
2022-09-15T07:03:39.780Z,21.46
2022-09-15T07:06:08.719Z,21.52
2022-09-15T07:08:35.880Z,21.54
2022-09-15T07:11:02.958Z,21.66
2022-09-15T07:13:30.539Z,21.75
2022-09-15T07:16:00.526Z,21.82
2022-09-15T07:18:27.939Z,21.86
2022-09-15T07:21:03.579Z,21.97
2022-09-15T07:23:30.795Z,21.98
2022-09-15T07:26:09.079Z,21.96
2022-09-15T07:28:36.859Z,21.99
2022-09-15T07:31:08.962Z,22.10
2022-09-15T07:33:37.000Z,22.16
2022-09-15T07:36:08.481Z,22.24
2022-09-15T07:38:38.921Z,22.16
2022-09-15T07:41:17.142Z,22.20
2022-09-15T07:43:52.899Z,22.27
2022-09-15T07:46:22.022Z,22.34
2022-09-15T07:48:50.807Z,22.54
2022-09-15T07:51:18.559Z,22.60
2022-09-15T07:53:47.779Z,22.71
2022-09-15T07:56:17.879Z,22.93
2022-09-15T07:58:46.039Z,23.05
2022-09-15T08:01:14.964Z,23.26
2022-09-15T08:03:43.659Z,23.36
2022-09-15T08:06:11.201Z,23.45
2022-09-15T08:08:39.319Z,23.57
2022-09-15T08:11:09.939Z,23.72
2022-09-15T08:13:37.641Z,23.92
2022-09-15T08:16:06.693Z,24.06
2022-09-15T08:18:34.160Z,24.23
2022-09-15T08:21:07.640Z,24.42
2022-09-15T08:23:34.775Z,24.61
2022-09-15T08:26:02.344Z,24.80
2022-09-15T08:28:29.499Z,25.03
2022-09-15T08:31:05.079Z,25.21
2022-09-15T08:33:32.888Z,25.31
2022-09-15T08:36:08.459Z,25.53
2022-09-15T08:38:35.620Z,25.63
2022-09-15T08:41:30.979Z,25.77
2022-09-15T08:44:19.819Z,25.91
2022-09-15T08:46:50.172Z,26.01
2022-09-15T08:49:47.836Z,26.06
2022-09-15T08:52:43.067Z,26.11
2022-09-15T08:55:52.023Z,26.23
2022-09-15T08:58:28.900Z,26.28
2022-09-15T09:01:53.323Z,26.34
2022-09-15T09:04:29.180Z,26.37
2022-09-15T09:07:14.806Z,26.41
2022-09-15T09:10:10.779Z,26.52
2022-09-15T09:12:46.180Z,26.57
2022-09-15T09:15:32.055Z,26.64
2022-09-15T09:18:31.140Z,26.72
2022-09-15T09:21:24.081Z,26.75
2022-09-15T09:24:06.512Z,26.77
2022-09-15T09:26:37.019Z,26.81
2022-09-15T09:29:18.642Z,26.82
2022-09-15T09:31:51.347Z,26.86
2022-09-15T09:34:44.379Z,26.77
2022-09-15T09:37:15.599Z,26.77
2022-09-15T09:39:42.939Z,26.62
2022-09-15T09:42:18.727Z,26.58
2022-09-15T09:44:47.402Z,26.66
2022-09-15T09:47:15.668Z,26.61
2022-09-15T09:49:49.708Z,26.62
2022-09-15T09:52:39.920Z,26.62
2022-09-15T09:55:19.020Z,26.59
2022-09-15T09:57:46.119Z,26.51
2022-09-15T10:00:37.682Z,26.38
2022-09-15T10:03:21.538Z,26.32
2022-09-15T10:06:24.539Z,26.20
2022-09-15T10:08:58.326Z,25.97
2022-09-15T10:11:47.107Z,25.73
2022-09-15T10:14:21.121Z,25.50
2022-09-15T10:16:59.059Z,25.57
2022-09-15T10:19:28.939Z,25.62
2022-09-15T10:21:58.299Z,25.63
2022-09-15T10:24:28.159Z,25.64
2022-09-15T10:27:16.218Z,25.68
2022-09-15T10:29:43.780Z,25.72
2022-09-15T10:32:25.625Z,25.71
2022-09-15T10:35:06.700Z,25.39
2022-09-15T10:37:44.039Z,25.20
2022-09-15T10:40:34.702Z,24.73
2022-09-15T10:43:23.707Z,24.55
2022-09-15T10:46:02.003Z,24.19
2022-09-15T10:48:56.096Z,24.09
2022-09-15T10:51:58.761Z,23.83
2022-09-15T10:54:49.186Z,23.78
2022-09-15T10:57:38.115Z,23.66
2022-09-15T11:00:12.301Z,23.58
2022-09-15T11:13:53.413Z,22.63
2022-09-15T11:16:30.199Z,22.47
2022-09-15T11:19:29.631Z,22.39
2022-09-15T11:22:13.780Z,22.41
2022-09-15T11:24:44.200Z,22.47
2022-09-15T11:27:14.619Z,22.47
2022-09-15T11:30:17.786Z,22.46
2022-09-15T11:32:48.401Z,22.47
2022-09-15T11:35:37.241Z,22.46
2022-09-15T11:38:31.022Z,22.36
2022-09-15T11:41:27.539Z,22.35
2022-09-15T11:43:57.621Z,22.37
2022-09-15T11:46:51.835Z,22.18
2022-09-15T11:49:48.121Z,22.15
2022-09-15T11:52:41.481Z,22.01
2022-09-15T11:55:22.062Z,22.01
2022-09-15T11:58:21.798Z,22.08
2022-09-15T12:01:12.862Z,22.19
2022-09-15T12:04:04.326Z,22.48
2022-09-15T12:06:51.965Z,22.93
2022-09-15T12:09:20.721Z,23.41
2022-09-15T12:11:51.838Z,23.91
2022-09-15T12:14:30.759Z,24.29
2022-09-15T12:16:59.549Z,24.67
2022-09-15T12:19:52.559Z,25.08
2022-09-15T12:22:29.343Z,25.34
2022-09-15T12:25:04.719Z,25.52
2022-09-15T12:27:31.919Z,25.68
2022-09-15T12:30:00.681Z,25.81
2022-09-15T12:32:32.243Z,25.87
2022-09-15T12:35:10.208Z,25.83
2022-09-15T12:37:53.235Z,25.89
2022-09-15T12:40:41.942Z,25.57
2022-09-15T12:43:12.840Z,25.54
2022-09-15T12:45:43.260Z,25.37
2022-09-15T12:48:23.788Z,25.25
2022-09-15T12:51:04.373Z,25.26
2022-09-15T12:56:25.261Z,25.30
2022-09-15T12:58:54.140Z,25.47
2022-09-15T13:01:24.667Z,25.26
2022-09-15T13:03:54.076Z,25.21
2022-09-15T13:06:28.280Z,24.74
2022-09-15T13:09:01.603Z,24.87
2022-09-15T13:11:32.113Z,24.92
2022-09-15T13:14:07.929Z,24.50
2022-09-15T13:16:44.020Z,24.69
2022-09-15T13:19:19.540Z,24.60
2022-09-15T13:21:54.299Z,24.28
2022-09-15T13:24:30.699Z,24.21
2022-09-15T13:26:58.248Z,24.38
2022-09-15T13:29:29.041Z,24.49
2022-09-15T13:32:23.619Z,24.50
2022-09-15T13:35:20.440Z,24.43
2022-09-15T13:38:29.289Z,24.46
2022-09-15T13:41:17.140Z,24.51
2022-09-15T13:44:02.661Z,24.52
2022-09-15T13:46:57.780Z,24.52
2022-09-15T13:49:46.482Z,24.25
2022-09-15T13:52:47.021Z,24.31
2022-09-15T13:55:21.759Z,24.29
2022-09-15T14:00:52.102Z,24.14
2022-09-15T14:03:40.739Z,24.13
2022-09-15T14:06:12.663Z,24.26
2022-09-15T14:08:42.084Z,24.63
2022-09-15T14:11:16.027Z,25.00
2022-09-15T14:13:48.622Z,25.41
2022-09-15T14:16:36.979Z,25.35
2022-09-15T14:19:27.983Z,25.54
2022-09-15T14:21:58.505Z,25.14
2022-09-15T14:24:30.987Z,25.30
2022-09-15T14:27:09.062Z,25.59
2022-09-15T14:29:40.820Z,25.67
2022-09-15T14:32:15.322Z,25.64
2022-09-15T14:34:43.511Z,25.56
2022-09-15T14:37:27.825Z,25.63
2022-09-15T14:39:57.510Z,25.55
2022-09-15T14:42:44.940Z,25.31
2022-09-15T14:48:01.597Z,24.94
2022-09-15T14:50:33.304Z,24.88
2022-09-15T14:53:07.121Z,24.58
2022-09-15T14:55:55.762Z,24.49
2022-09-15T14:58:29.380Z,24.11
2022-09-15T15:00:59.474Z,24.17
2022-09-15T15:03:53.139Z,24.09
2022-09-15T15:06:31.127Z,23.87
2022-09-15T15:09:01.104Z,23.69
2022-09-15T15:11:31.062Z,23.54
2022-09-15T15:13:58.181Z,23.50
2022-09-15T15:16:31.117Z,23.45
2022-09-15T15:18:58.459Z,23.44
2022-09-15T15:21:41.919Z,23.33
2022-09-15T15:24:22.862Z,23.35
2022-09-15T15:26:50.808Z,23.21
2022-09-15T15:29:44.284Z,23.22
2022-09-15T15:32:17.874Z,23.07
2022-09-15T15:34:53.399Z,23.01
2022-09-15T15:37:32.762Z,22.95
2022-09-15T15:40:07.373Z,22.93
2022-09-15T15:42:34.899Z,22.93
2022-09-15T15:45:25.936Z,22.97
2022-09-15T15:47:53.540Z,22.95
2022-09-15T15:50:27.339Z,22.99
2022-09-15T15:52:55.260Z,23.01
2022-09-15T15:55:24.501Z,22.84
2022-09-15T15:57:53.867Z,22.60
2022-09-15T16:00:22.522Z,22.71
2022-09-15T16:02:51.467Z,22.61
2022-09-15T16:05:20.060Z,22.53
2022-09-15T16:07:50.659Z,22.51
2022-09-15T16:10:21.160Z,22.48
2022-09-15T16:12:48.319Z,22.40
2022-09-15T16:15:20.820Z,22.38
2022-09-15T16:17:48.722Z,22.35
2022-09-15T16:20:17.079Z,22.32
2022-09-15T16:22:44.527Z,22.33
2022-09-15T16:25:19.159Z,22.27
2022-09-15T16:27:46.339Z,22.26
2022-09-15T16:30:13.456Z,22.27
2022-09-15T16:32:41.519Z,22.28
2022-09-15T16:35:24.901Z,22.25
2022-09-15T16:37:51.947Z,22.25
2022-09-15T16:40:19.018Z,22.22
2022-09-15T16:42:47.989Z,22.24
2022-09-15T16:45:41.760Z,22.23
2022-09-15T16:48:10.341Z,22.20
2022-09-15T16:50:39.855Z,22.22
2022-09-15T16:53:21.679Z,22.16
2022-09-15T16:55:51.262Z,22.14
2022-09-15T16:58:20.299Z,22.12
2022-09-15T17:00:49.347Z,22.11
2022-09-15T17:03:19.340Z,22.04
2022-09-15T17:05:50.267Z,22.07
2022-09-15T17:08:27.462Z,22.03
2022-09-15T17:10:59.020Z,22.01
2022-09-15T17:13:30.342Z,21.93
2022-09-15T17:15:59.203Z,21.94
2022-09-15T17:18:27.401Z,21.92
2022-09-15T17:20:54.778Z,21.84
2022-09-15T17:23:27.983Z,21.80
2022-09-15T17:25:59.259Z,21.77
2022-09-15T17:28:29.407Z,21.71
2022-09-15T17:30:58.855Z,21.66
2022-09-15T17:33:27.080Z,21.60
2022-09-15T17:35:54.441Z,21.57
2022-09-15T17:38:22.199Z,21.59
2022-09-15T17:40:50.709Z,21.54
2022-09-15T17:43:19.840Z,21.52
2022-09-15T17:45:48.589Z,21.43
2022-09-15T17:48:16.624Z,21.41
2022-09-15T17:50:45.562Z,21.36
2022-09-15T17:53:18.780Z,21.37
2022-09-15T17:55:45.860Z,21.30
2022-09-15T17:58:13.220Z,21.31
2022-09-15T18:00:42.981Z,21.32
2022-09-15T18:03:31.001Z,21.34
2022-09-15T18:06:00.421Z,21.25
2022-09-15T18:08:28.141Z,21.21
2022-09-15T18:10:56.769Z,21.14
2022-09-15T18:13:27.427Z,21.12
2022-09-15T18:15:55.042Z,21.11
2022-09-15T18:18:28.541Z,21.11
2022-09-15T18:21:01.802Z,21.13
2022-09-15T18:23:30.741Z,21.12
2022-09-15T18:25:59.399Z,21.14
2022-09-15T18:28:28.818Z,21.12
2022-09-15T18:30:56.486Z,21.07
2022-09-15T18:33:25.643Z,21.07
2022-09-15T18:35:55.798Z,21.04
2022-09-15T18:38:23.479Z,21.05
2022-09-15T18:40:56.340Z,21.04
2022-09-15T18:43:26.583Z,21.00
2022-09-15T18:45:58.656Z,20.99
2022-09-15T18:48:26.002Z,21.01
2022-09-15T18:50:53.680Z,21.01
2022-09-15T18:53:22.407Z,20.96
2022-09-15T18:55:49.760Z,20.92
2022-09-15T18:58:17.919Z,20.92
2022-09-15T19:00:45.879Z,20.88
2022-09-15T19:03:14.456Z,20.84
2022-09-15T19:05:41.721Z,20.77
2022-09-15T19:08:09.500Z,20.76
2022-09-15T19:10:38.500Z,20.74
2022-09-15T19:13:05.780Z,20.73
2022-09-15T19:15:34.783Z,20.73
2022-09-15T19:18:02.320Z,20.73
2022-09-15T19:20:29.562Z,20.68
2022-09-15T19:22:57.842Z,20.72
2022-09-15T19:25:25.040Z,20.70
2022-09-15T19:27:52.281Z,20.67
2022-09-15T19:30:19.261Z,20.68
2022-09-15T19:32:46.568Z,20.70
2022-09-15T19:35:13.808Z,20.66
2022-09-15T19:37:44.979Z,20.66
2022-09-15T19:40:14.252Z,20.65
2022-09-15T19:42:43.413Z,20.60
2022-09-15T19:45:12.279Z,20.61
2022-09-15T19:47:40.719Z,20.58
2022-09-15T19:50:09.460Z,20.46
2022-09-15T19:52:36.558Z,20.54
2022-09-15T19:55:05.379Z,20.60
2022-09-15T19:57:32.459Z,20.49
2022-09-15T19:59:59.588Z,20.43
2022-09-15T20:02:26.617Z,20.33
2022-09-15T20:04:53.720Z,20.30
2022-09-15T20:07:20.865Z,20.14
2022-09-15T20:09:47.860Z,20.20
2022-09-15T20:12:15.222Z,20.05
2022-09-15T20:14:42.322Z,20.02
2022-09-15T20:17:09.309Z,19.97
2022-09-15T20:19:37.223Z,19.98
2022-09-15T20:22:04.622Z,20.01
2022-09-15T20:24:31.659Z,20.02
2022-09-15T20:26:59.479Z,20.04
2022-09-15T20:29:26.724Z,20.00
2022-09-15T20:31:54.279Z,20.03
2022-09-15T20:34:21.567Z,20.08
2022-09-15T20:36:49.162Z,20.02
2022-09-15T20:39:18.966Z,20.00
2022-09-15T20:41:46.188Z,19.96
2022-09-15T20:44:14.162Z,19.94
2022-09-15T20:46:41.491Z,19.95
2022-09-15T20:49:09.642Z,19.96
2022-09-15T20:51:36.739Z,19.94
2022-09-15T20:54:04.456Z,19.99
2022-09-15T20:56:35.292Z,20.01
2022-09-15T20:59:04.882Z,19.99
2022-09-15T21:01:37.263Z,20.06
2022-09-15T21:04:05.624Z,20.07
2022-09-15T21:06:33.443Z,20.08
2022-09-15T21:09:00.605Z,20.07
2022-09-15T21:11:29.283Z,20.10
2022-09-15T21:13:57.598Z,20.11
2022-09-15T21:16:28.019Z,20.13
2022-09-15T21:18:57.261Z,20.11
2022-09-15T21:21:26.610Z,20.13
2022-09-15T21:23:56.101Z,20.11
2022-09-15T21:26:26.421Z,20.10
2022-09-15T21:28:55.021Z,20.07
2022-09-15T21:31:27.978Z,20.11
2022-09-15T21:33:56.425Z,20.06
2022-09-15T21:36:28.699Z,20.00
2022-09-15T21:38:57.779Z,19.95
2022-09-15T21:41:27.553Z,19.94
2022-09-15T21:43:55.741Z,19.96
2022-09-15T21:46:25.738Z,19.87
2022-09-15T21:48:53.307Z,19.86
2022-09-15T21:51:25.044Z,19.88
2022-09-15T21:53:53.681Z,19.76
2022-09-15T21:56:22.088Z,19.75
2022-09-15T21:58:49.166Z,19.76
2022-09-15T22:01:28.238Z,19.64
2022-09-15T22:03:58.720Z,19.68
2022-09-15T22:06:30.459Z,19.65
2022-09-15T22:09:23.519Z,19.71
2022-09-15T22:11:50.559Z,19.74
2022-09-15T22:14:18.241Z,19.65
2022-09-15T22:16:45.417Z,19.58
2022-09-15T22:19:13.043Z,19.63
2022-09-15T22:21:42.229Z,19.63
2022-09-15T22:24:11.630Z,19.53
2022-09-15T22:26:39.583Z,19.61
2022-09-15T22:29:06.984Z,19.62
2022-09-15T22:31:34.286Z,19.65
2022-09-15T22:34:01.439Z,19.66
2022-09-15T22:36:30.963Z,19.69
2022-09-15T22:39:08.540Z,19.70
2022-09-15T22:41:39.860Z,19.73
2022-09-15T22:44:16.600Z,19.74
2022-09-15T22:46:43.617Z,19.76
2022-09-15T22:49:10.659Z,19.74
2022-09-15T22:51:37.740Z,19.69
2022-09-15T22:54:05.462Z,19.70
2022-09-15T22:56:32.602Z,19.69
2022-09-15T22:59:00.123Z,19.66
2022-09-15T23:01:30.193Z,19.64
2022-09-15T23:03:59.608Z,19.65
2022-09-15T23:06:29.313Z,19.63
2022-09-15T23:08:59.102Z,19.65
2022-09-15T23:11:28.014Z,19.66
2022-09-15T23:13:55.556Z,19.67
2022-09-15T23:16:24.449Z,19.68
2022-09-15T23:18:51.919Z,19.72
2022-09-15T23:21:19.672Z,19.76
2022-09-15T23:23:49.276Z,19.76
2022-09-15T23:26:18.393Z,19.79
2022-09-15T23:28:45.476Z,19.76
2022-09-15T23:31:13.368Z,19.77
2022-09-15T23:33:41.233Z,19.77
2022-09-15T23:36:13.773Z,19.74
2022-09-15T23:38:43.045Z,19.76
2022-09-15T23:41:11.452Z,19.80
2022-09-15T23:43:38.791Z,19.83
2022-09-15T23:46:06.511Z,19.85
2022-09-15T23:48:33.572Z,19.82
2022-09-15T23:51:00.962Z,19.82
2022-09-15T23:53:28.792Z,19.84
2022-09-15T23:55:55.971Z,19.85
2022-09-15T23:58:23.014Z,19.87
